sensor_id;sensor_type;location;lat;lon;timestamp;temperature;humidity
26408;DHT22;14583;43.604;1.364;2023-03-14T00:01:52;11.60;99.90
26408;DHT22;14583;43.604;1.364;2023-03-14T00:04:18;11.90;99.90
26408;DHT22;14583;43.604;1.364;2023-03-14T00:06:44;11.80;99.90
26408;DHT22;14583;43.604;1.364;2023-03-14T00:09:12;12.00;99.90
26408;DHT22;14583;43.604;1.364;2023-03-14T00:11:38;12.00;99.90
26408;DHT22;14583;43.604;1.364;2023-03-14T00:14:03;12.00;99.90
26408;DHT22;14583;43.604;1.364;2023-03-14T00:16:29;11.80;99.90
26408;DHT22;14583;43.604;1.364;2023-03-14T00:18:55;11.60;99.90
26408;DHT22;14583;43.604;1.364;2023-03-14T00:21:20;11.60;99.90
26408;DHT22;14583;43.604;1.364;2023-03-14T00:23:46;11.60;99.90
26408;DHT22;14583;43.604;1.364;2023-03-14T00:26:15;11.70;99.90
26408;DHT22;14583;43.604;1.364;2023-03-14T00:28:42;11.70;99.90
26408;DHT22;14583;43.604;1.364;2023-03-14T00:31:09;11.50;99.90
26408;DHT22;14583;43.604;1.364;2023-03-14T00:33:35;11.50;99.90
26408;DHT22;14583;43.604;1.364;2023-03-14T00:36:07;11.50;99.90
26408;DHT22;14583;43.604;1.364;2023-03-14T00:38:37;11.70;99.90
26408;DHT22;14583;43.604;1.364;2023-03-14T00:41:04;11.70;99.90
26408;DHT22;14583;43.604;1.364;2023-03-14T00:43:30;11.80;99.90
26408;DHT22;14583;43.604;1.364;2023-03-14T00:45:55;11.90;99.90
26408;DHT22;14583;43.604;1.364;2023-03-14T00:48:22;11.80;99.90
26408;DHT22;14583;43.604;1.364;2023-03-14T00:50:48;11.70;99.90
26408;DHT22;14583;43.604;1.364;2023-03-14T00:53:13;11.50;99.90
26408;DHT22;14583;43.604;1.364;2023-03-14T00:55:41;11.40;99.90
26408;DHT22;14583;43.604;1.364;2023-03-14T00:58:07;11.50;99.90
26408;DHT22;14583;43.604;1.364;2023-03-14T01:00:33;11.50;99.90
26408;DHT22;14583;43.604;1.364;2023-03-14T01:02:59;11.50;99.90
26408;DHT22;14583;43.604;1.364;2023-03-14T01:05:25;11.30;99.90
26408;DHT22;14583;43.604;1.364;2023-03-14T01:07:51;11.00;99.90
26408;DHT22;14583;43.604;1.364;2023-03-14T01:10:16;11.10;99.90
26408;DHT22;14583;43.604;1.364;2023-03-14T01:12:42;11.10;99.90
26408;DHT22;14583;43.604;1.364;2023-03-14T01:15:08;11.10;99.90
26408;DHT22;14583;43.604;1.364;2023-03-14T01:17:35;10.90;99.90
26408;DHT22;14583;43.604;1.364;2023-03-14T01:20:01;11.00;99.90
26408;DHT22;14583;43.604;1.364;2023-03-14T01:22:26;11.00;99.90
26408;DHT22;14583;43.604;1.364;2023-03-14T01:24:52;11.10;99.90
26408;DHT22;14583;43.604;1.364;2023-03-14T01:27:18;11.20;99.90
26408;DHT22;14583;43.604;1.364;2023-03-14T01:29:43;11.20;99.90
26408;DHT22;14583;43.604;1.364;2023-03-14T01:32:09;11.30;99.90
26408;DHT22;14583;43.604;1.364;2023-03-14T01:34:35;11.50;99.90
26408;DHT22;14583;43.604;1.364;2023-03-14T01:37:00;11.70;99.90
26408;DHT22;14583;43.604;1.364;2023-03-14T01:39:26;11.70;99.90
26408;DHT22;14583;43.604;1.364;2023-03-14T01:41:51;11.70;99.90
26408;DHT22;14583;43.604;1.364;2023-03-14T01:44:17;11.80;99.90
26408;DHT22;14583;43.604;1.364;2023-03-14T01:46:46;12.00;99.90
26408;DHT22;14583;43.604;1.364;2023-03-14T01:49:26;12.20;99.90
26408;DHT22;14583;43.604;1.364;2023-03-14T01:52:09;12.30;99.90
26408;DHT22;14583;43.604;1.364;2023-03-14T01:54:43;12.20;99.90
26408;DHT22;14583;43.604;1.364;2023-03-14T01:57:22;12.20;99.90
26408;DHT22;14583;43.604;1.364;2023-03-14T01:59:55;12.10;99.90
26408;DHT22;14583;43.604;1.364;2023-03-14T02:02:24;12.10;99.90
26408;DHT22;14583;43.604;1.364;2023-03-14T02:04:52;12.10;99.90
26408;DHT22;14583;43.604;1.364;2023-03-14T02:07:33;12.20;99.90
26408;DHT22;14583;43.604;1.364;2023-03-14T02:10:02;12.20;99.90
26408;DHT22;14583;43.604;1.364;2023-03-14T02:12:29;12.20;99.90
26408;DHT22;14583;43.604;1.364;2023-03-14T02:14:54;12.20;99.90
26408;DHT22;14583;43.604;1.364;2023-03-14T02:17:22;12.20;99.90
26408;DHT22;14583;43.604;1.364;2023-03-14T02:20:13;12.20;99.90
26408;DHT22;14583;43.604;1.364;2023-03-14T02:22:36;12.20;99.90
26408;DHT22;14583;43.604;1.364;2023-03-14T02:28:07;12.20;99.90
26408;DHT22;14583;43.604;1.364;2023-03-14T02:30:33;12.20;99.90
26408;DHT22;14583;43.604;1.364;2023-03-14T02:33:06;12.10;99.90
26408;DHT22;14583;43.604;1.364;2023-03-14T02:35:59;12.20;99.90
26408;DHT22;14583;43.604;1.364;2023-03-14T02:38:32;12.20;99.90
26408;DHT22;14583;43.604;1.364;2023-03-14T02:40:58;12.20;99.90
26408;DHT22;14583;43.604;1.364;2023-03-14T02:43:24;12.10;99.90
26408;DHT22;14583;43.604;1.364;2023-03-14T02:45:50;12.10;99.90
26408;DHT22;14583;43.604;1.364;2023-03-14T02:48:30;12.20;99.90
26408;DHT22;14583;43.604;1.364;2023-03-14T02:50:59;12.20;99.90
26408;DHT22;14583;43.604;1.364;2023-03-14T02:53:31;12.20;99.90
26408;DHT22;14583;43.604;1.364;2023-03-14T02:55:58;12.20;99.90
26408;DHT22;14583;43.604;1.364;2023-03-14T02:58:24;12.20;99.90
26408;DHT22;14583;43.604;1.364;2023-03-14T03:00:50;12.10;99.90
26408;DHT22;14583;43.604;1.364;2023-03-14T03:03:15;12.10;99.90
26408;DHT22;14583;43.604;1.364;2023-03-14T03:05:41;12.00;99.90
26408;DHT22;14583;43.604;1.364;2023-03-14T03:08:10;12.00;99.90
26408;DHT22;14583;43.604;1.364;2023-03-14T03:10:36;12.00;99.90
26408;DHT22;14583;43.604;1.364;2023-03-14T03:13:02;11.90;99.90
26408;DHT22;14583;43.604;1.364;2023-03-14T03:15:28;11.90;99.90
26408;DHT22;14583;43.604;1.364;2023-03-14T03:17:53;11.90;99.90
26408;DHT22;14583;43.604;1.364;2023-03-14T03:20:19;11.90;99.90
26408;DHT22;14583;43.604;1.364;2023-03-14T03:22:45;11.90;99.90
26408;DHT22;14583;43.604;1.364;2023-03-14T03:25:10;12.00;99.90
26408;DHT22;14583;43.604;1.364;2023-03-14T03:27:37;11.90;99.90
26408;DHT22;14583;43.604;1.364;2023-03-14T03:30:06;11.90;99.90
26408;DHT22;14583;43.604;1.364;2023-03-14T03:32:32;11.90;99.90
26408;DHT22;14583;43.604;1.364;2023-03-14T03:34:58;11.90;99.90
26408;DHT22;14583;43.604;1.364;2023-03-14T03:37:24;11.90;99.90
26408;DHT22;14583;43.604;1.364;2023-03-14T03:39:50;11.90;99.90
26408;DHT22;14583;43.604;1.364;2023-03-14T03:42:17;11.80;99.90
26408;DHT22;14583;43.604;1.364;2023-03-14T03:44:43;11.70;99.90
26408;DHT22;14583;43.604;1.364;2023-03-14T03:47:09;11.70;99.90
26408;DHT22;14583;43.604;1.364;2023-03-14T03:49:34;11.70;99.90
26408;DHT22;14583;43.604;1.364;2023-03-14T03:52:00;11.80;99.90
26408;DHT22;14583;43.604;1.364;2023-03-14T03:54:26;11.70;99.90
26408;DHT22;14583;43.604;1.364;2023-03-14T03:56:52;11.60;99.90
26408;DHT22;14583;43.604;1.364;2023-03-14T03:59:18;11.60;99.90
26408;DHT22;14583;43.604;1.364;2023-03-14T04:01:43;11.50;99.90
26408;DHT22;14583;43.604;1.364;2023-03-14T04:04:09;11.60;99.90
26408;DHT22;14583;43.604;1.364;2023-03-14T04:06:35;11.40;99.90
26408;DHT22;14583;43.604;1.364;2023-03-14T04:09:01;11.50;99.90
26408;DHT22;14583;43.604;1.364;2023-03-14T04:11:26;11.40;99.90
26408;DHT22;14583;43.604;1.364;2023-03-14T04:13:52;11.50;99.90
26408;DHT22;14583;43.604;1.364;2023-03-14T04:16:20;11.30;99.90
26408;DHT22;14583;43.604;1.364;2023-03-14T04:18:47;11.00;99.90
26408;DHT22;14583;43.604;1.364;2023-03-14T04:21:13;10.90;99.90
26408;DHT22;14583;43.604;1.364;2023-03-14T04:23:38;10.80;99.90
26408;DHT22;14583;43.604;1.364;2023-03-14T04:26:04;10.90;99.90
26408;DHT22;14583;43.604;1.364;2023-03-14T04:28:30;10.80;99.90
26408;DHT22;14583;43.604;1.364;2023-03-14T04:30:56;10.80;99.90
26408;DHT22;14583;43.604;1.364;2023-03-14T04:33:22;10.70;99.90
26408;DHT22;14583;43.604;1.364;2023-03-14T04:35:48;10.70;99.90
26408;DHT22;14583;43.604;1.364;2023-03-14T04:38:15;10.70;99.90
26408;DHT22;14583;43.604;1.364;2023-03-14T04:40:41;11.00;99.90
26408;DHT22;14583;43.604;1.364;2023-03-14T04:43:08;11.00;99.90
26408;DHT22;14583;43.604;1.364;2023-03-14T04:45:35;10.90;99.90
26408;DHT22;14583;43.604;1.364;2023-03-14T04:48:01;10.70;99.90
26408;DHT22;14583;43.604;1.364;2023-03-14T04:50:27;10.60;99.90
26408;DHT22;14583;43.604;1.364;2023-03-14T04:52:53;10.60;99.90
26408;DHT22;14583;43.604;1.364;2023-03-14T04:55:19;10.70;99.90
26408;DHT22;14583;43.604;1.364;2023-03-14T04:57:44;10.60;99.90
26408;DHT22;14583;43.604;1.364;2023-03-14T05:00:10;10.70;99.90
26408;DHT22;14583;43.604;1.364;2023-03-14T05:02:36;10.70;99.90
26408;DHT22;14583;43.604;1.364;2023-03-14T05:05:02;10.80;99.90
26408;DHT22;14583;43.604;1.364;2023-03-14T05:07:27;10.60;99.90
26408;DHT22;14583;43.604;1.364;2023-03-14T05:09:53;10.70;99.90
26408;DHT22;14583;43.604;1.364;2023-03-14T05:12:22;10.70;99.90
26408;DHT22;14583;43.604;1.364;2023-03-14T05:14:48;10.70;99.90
26408;DHT22;14583;43.604;1.364;2023-03-14T05:17:14;10.70;99.90
26408;DHT22;14583;43.604;1.364;2023-03-14T05:19:40;10.70;99.90
26408;DHT22;14583;43.604;1.364;2023-03-14T05:22:06;10.90;99.90
26408;DHT22;14583;43.604;1.364;2023-03-14T05:24:33;10.90;99.90
26408;DHT22;14583;43.604;1.364;2023-03-14T05:26:58;10.80;99.90
26408;DHT22;14583;43.604;1.364;2023-03-14T05:29:24;10.90;99.90
26408;DHT22;14583;43.604;1.364;2023-03-14T05:31:50;10.80;99.90
26408;DHT22;14583;43.604;1.364;2023-03-14T05:34:15;11.00;99.90
26408;DHT22;14583;43.604;1.364;2023-03-14T05:36:41;10.90;99.90
26408;DHT22;14583;43.604;1.364;2023-03-14T05:39:06;11.00;99.90
26408;DHT22;14583;43.604;1.364;2023-03-14T05:41:32;11.00;99.90
26408;DHT22;14583;43.604;1.364;2023-03-14T05:43:58;10.90;99.90
26408;DHT22;14583;43.604;1.364;2023-03-14T05:46:23;10.90;99.90
26408;DHT22;14583;43.604;1.364;2023-03-14T05:48:49;10.80;99.90
26408;DHT22;14583;43.604;1.364;2023-03-14T05:51:15;11.00;99.90
26408;DHT22;14583;43.604;1.364;2023-03-14T05:53:40;11.00;99.90
26408;DHT22;14583;43.604;1.364;2023-03-14T05:56:07;10.90;99.90
26408;DHT22;14583;43.604;1.364;2023-03-14T05:58:33;10.90;99.90
26408;DHT22;14583;43.604;1.364;2023-03-14T06:01:02;11.00;99.90
26408;DHT22;14583;43.604;1.364;2023-03-14T06:03:29;11.10;99.90
26408;DHT22;14583;43.604;1.364;2023-03-14T06:05:55;11.20;99.90
26408;DHT22;14583;43.604;1.364;2023-03-14T06:08:21;11.30;99.90
26408;DHT22;14583;43.604;1.364;2023-03-14T06:10:46;11.20;99.90
26408;DHT22;14583;43.604;1.364;2023-03-14T06:13:12;11.20;99.90
26408;DHT22;14583;43.604;1.364;2023-03-14T06:15:38;11.10;99.90
26408;DHT22;14583;43.604;1.364;2023-03-14T06:18:03;10.90;99.90
26408;DHT22;14583;43.604;1.364;2023-03-14T06:20:29;10.90;99.90
26408;DHT22;14583;43.604;1.364;2023-03-14T06:22:55;10.90;99.90
26408;DHT22;14583;43.604;1.364;2023-03-14T06:25:20;10.90;99.90
26408;DHT22;14583;43.604;1.364;2023-03-14T06:27:46;10.90;99.90
26408;DHT22;14583;43.604;1.364;2023-03-14T06:30:12;10.80;99.90
26408;DHT22;14583;43.604;1.364;2023-03-14T06:32:37;11.00;99.90
26408;DHT22;14583;43.604;1.364;2023-03-14T06:35:03;11.10;99.90
26408;DHT22;14583;43.604;1.364;2023-03-14T06:37:29;11.10;99.90
26408;DHT22;14583;43.604;1.364;2023-03-14T06:39:55;11.00;99.90
26408;DHT22;14583;43.604;1.364;2023-03-14T06:42:21;11.10;99.90
26408;DHT22;14583;43.604;1.364;2023-03-14T06:44:47;11.00;99.90
26408;DHT22;14583;43.604;1.364;2023-03-14T06:47:13;10.90;99.90
26408;DHT22;14583;43.604;1.364;2023-03-14T06:49:39;11.00;99.90
26408;DHT22;14583;43.604;1.364;2023-03-14T06:52:05;11.10;99.90
26408;DHT22;14583;43.604;1.364;2023-03-14T06:54:30;11.10;99.90
26408;DHT22;14583;43.604;1.364;2023-03-14T06:56:56;11.00;99.90
26408;DHT22;14583;43.604;1.364;2023-03-14T06:59:22;11.00;99.90
26408;DHT22;14583;43.604;1.364;2023-03-14T07:01:47;11.00;99.90
26408;DHT22;14583;43.604;1.364;2023-03-14T07:04:13;10.90;99.90
26408;DHT22;14583;43.604;1.364;2023-03-14T07:06:39;10.90;99.90
26408;DHT22;14583;43.604;1.364;2023-03-14T07:09:10;10.80;99.90
26408;DHT22;14583;43.604;1.364;2023-03-14T07:11:36;10.80;99.90
26408;DHT22;14583;43.604;1.364;2023-03-14T07:14:01;10.80;99.90
26408;DHT22;14583;43.604;1.364;2023-03-14T07:16:27;11.10;99.90
26408;DHT22;14583;43.604;1.364;2023-03-14T07:18:56;11.00;99.90
26408;DHT22;14583;43.604;1.364;2023-03-14T07:21:22;11.10;99.90
26408;DHT22;14583;43.604;1.364;2023-03-14T07:23:48;11.10;99.90
26408;DHT22;14583;43.604;1.364;2023-03-14T07:26:14;11.00;99.90
26408;DHT22;14583;43.604;1.364;2023-03-14T07:28:40;10.90;99.90
26408;DHT22;14583;43.604;1.364;2023-03-14T07:31:06;11.00;99.90
26408;DHT22;14583;43.604;1.364;2023-03-14T07:33:32;11.10;99.90
26408;DHT22;14583;43.604;1.364;2023-03-14T07:35:58;11.00;99.90
26408;DHT22;14583;43.604;1.364;2023-03-14T07:38:24;11.20;99.90
26408;DHT22;14583;43.604;1.364;2023-03-14T07:40:50;11.20;99.90
26408;DHT22;14583;43.604;1.364;2023-03-14T07:43:15;11.10;99.90
26408;DHT22;14583;43.604;1.364;2023-03-14T07:45:41;11.20;99.90
26408;DHT22;14583;43.604;1.364;2023-03-14T07:48:06;11.30;99.90
26408;DHT22;14583;43.604;1.364;2023-03-14T07:50:32;11.40;99.90
26408;DHT22;14583;43.604;1.364;2023-03-14T07:52:58;11.40;99.90
26408;DHT22;14583;43.604;1.364;2023-03-14T07:55:23;11.40;99.90
26408;DHT22;14583;43.604;1.364;2023-03-14T07:57:49;11.40;99.90
26408;DHT22;14583;43.604;1.364;2023-03-14T08:00:15;11.40;99.90
26408;DHT22;14583;43.604;1.364;2023-03-14T08:02:41;11.30;99.90
26408;DHT22;14583;43.604;1.364;2023-03-14T08:05:07;11.20;99.90
26408;DHT22;14583;43.604;1.364;2023-03-14T08:07:32;11.30;99.90
26408;DHT22;14583;43.604;1.364;2023-03-14T08:09:58;11.40;99.90
26408;DHT22;14583;43.604;1.364;2023-03-14T08:12:24;11.40;99.90
26408;DHT22;14583;43.604;1.364;2023-03-14T08:14:49;11.50;99.90
26408;DHT22;14583;43.604;1.364;2023-03-14T08:17:15;11.60;99.90
26408;DHT22;14583;43.604;1.364;2023-03-14T08:19:41;11.60;99.90
26408;DHT22;14583;43.604;1.364;2023-03-14T08:22:07;11.70;99.90
26408;DHT22;14583;43.604;1.364;2023-03-14T08:24:33;11.90;99.90
26408;DHT22;14583;43.604;1.364;2023-03-14T08:26:58;11.90;99.90
26408;DHT22;14583;43.604;1.364;2023-03-14T08:29:24;12.00;99.90
26408;DHT22;14583;43.604;1.364;2023-03-14T08:31:50;12.00;99.90
26408;DHT22;14583;43.604;1.364;2023-03-14T08:34:16;12.10;99.90
26408;DHT22;14583;43.604;1.364;2023-03-14T08:36:42;12.30;99.90
26408;DHT22;14583;43.604;1.364;2023-03-14T08:39:07;12.30;99.90
26408;DHT22;14583;43.604;1.364;2023-03-14T08:41:34;12.30;99.90
26408;DHT22;14583;43.604;1.364;2023-03-14T08:44:06;12.30;99.90
26408;DHT22;14583;43.604;1.364;2023-03-14T08:46:31;12.30;99.90
26408;DHT22;14583;43.604;1.364;2023-03-14T08:48:57;12.20;99.90
26408;DHT22;14583;43.604;1.364;2023-03-14T08:51:22;12.10;99.90
26408;DHT22;14583;43.604;1.364;2023-03-14T08:53:48;12.20;99.90
26408;DHT22;14583;43.604;1.364;2023-03-14T08:56:14;12.20;99.90
26408;DHT22;14583;43.604;1.364;2023-03-14T08:58:39;12.30;99.90
26408;DHT22;14583;43.604;1.364;2023-03-14T09:01:08;12.30;99.90
26408;DHT22;14583;43.604;1.364;2023-03-14T09:03:34;12.40;99.90
26408;DHT22;14583;43.604;1.364;2023-03-14T09:06:05;12.30;99.90
26408;DHT22;14583;43.604;1.364;2023-03-14T09:08:32;12.40;99.90
26408;DHT22;14583;43.604;1.364;2023-03-14T09:10:58;12.50;99.90
26408;DHT22;14583;43.604;1.364;2023-03-14T09:13:24;12.50;99.90
26408;DHT22;14583;43.604;1.364;2023-03-14T09:15:53;12.50;99.90
26408;DHT22;14583;43.604;1.364;2023-03-14T09:18:19;12.40;99.90
26408;DHT22;14583;43.604;1.364;2023-03-14T09:20:45;12.40;99.90
26408;DHT22;14583;43.604;1.364;2023-03-14T09:23:11;12.10;99.90
26408;DHT22;14583;43.604;1.364;2023-03-14T09:25:36;12.10;99.90
26408;DHT22;14583;43.604;1.364;2023-03-14T09:28:02;12.00;99.90
26408;DHT22;14583;43.604;1.364;2023-03-14T09:30:28;11.80;99.90
26408;DHT22;14583;43.604;1.364;2023-03-14T09:32:54;11.70;99.90
26408;DHT22;14583;43.604;1.364;2023-03-14T09:35:19;11.70;99.90
26408;DHT22;14583;43.604;1.364;2023-03-14T09:37:45;11.60;99.90
26408;DHT22;14583;43.604;1.364;2023-03-14T09:40:13;11.60;99.90
26408;DHT22;14583;43.604;1.364;2023-03-14T09:42:40;11.60;99.90
26408;DHT22;14583;43.604;1.364;2023-03-14T09:45:19;11.90;99.90
26408;DHT22;14583;43.604;1.364;2023-03-14T09:47:48;11.90;99.90
26408;DHT22;14583;43.604;1.364;2023-03-14T09:50:15;12.10;99.90
26408;DHT22;14583;43.604;1.364;2023-03-14T09:52:44;12.20;99.90
26408;DHT22;14583;43.604;1.364;2023-03-14T09:57:37;11.80;99.90
26408;DHT22;14583;43.604;1.364;2023-03-14T10:00:13;11.80;99.90
26408;DHT22;14583;43.604;1.364;2023-03-14T10:02:42;11.80;99.90
26408;DHT22;14583;43.604;1.364;2023-03-14T10:05:19;11.60;99.90
26408;DHT22;14583;43.604;1.364;2023-03-14T10:07:45;11.70;99.90
26408;DHT22;14583;43.604;1.364;2023-03-14T10:10:17;11.60;99.90
26408;DHT22;14583;43.604;1.364;2023-03-14T10:12:46;11.60;99.90
26408;DHT22;14583;43.604;1.364;2023-03-14T10:15:14;11.70;99.90
26408;DHT22;14583;43.604;1.364;2023-03-14T10:17:50;12.00;99.90
26408;DHT22;14583;43.604;1.364;2023-03-14T10:22:53;12.40;99.90
26408;DHT22;14583;43.604;1.364;2023-03-14T10:25:34;12.30;99.90
26408;DHT22;14583;43.604;1.364;2023-03-14T10:27:59;12.30;99.90
26408;DHT22;14583;43.604;1.364;2023-03-14T10:30:45;12.30;99.90
26408;DHT22;14583;43.604;1.364;2023-03-14T10:33:20;12.30;99.90
26408;DHT22;14583;43.604;1.364;2023-03-14T10:35:56;12.30;99.90
26408;DHT22;14583;43.604;1.364;2023-03-14T10:38:26;12.20;99.90
26408;DHT22;14583;43.604;1.364;2023-03-14T10:40:53;12.30;99.90
26408;DHT22;14583;43.604;1.364;2023-03-14T10:43:23;12.50;99.90
26408;DHT22;14583;43.604;1.364;2023-03-14T10:46:01;12.50;99.90
26408;DHT22;14583;43.604;1.364;2023-03-14T10:48:38;12.50;99.90
26408;DHT22;14583;43.604;1.364;2023-03-14T10:54:02;13.00;99.90
26408;DHT22;14583;43.604;1.364;2023-03-14T10:56:35;13.20;99.90
26408;DHT22;14583;43.604;1.364;2023-03-14T10:59:02;13.20;99.90
26408;DHT22;14583;43.604;1.364;2023-03-14T11:04:25;12.50;99.90
26408;DHT22;14583;43.604;1.364;2023-03-14T11:07:15;11.80;99.90
26408;DHT22;14583;43.604;1.364;2023-03-14T11:20:51;11.60;99.90
26408;DHT22;14583;43.604;1.364;2023-03-14T11:23:21;11.70;99.90
26408;DHT22;14583;43.604;1.364;2023-03-14T11:25:56;11.90;99.90
26408;DHT22;14583;43.604;1.364;2023-03-14T11:28:47;11.80;99.90
26408;DHT22;14583;43.604;1.364;2023-03-14T11:31:33;11.60;99.90
26408;DHT22;14583;43.604;1.364;2023-03-14T11:35:19;11.40;99.90
26408;DHT22;14583;43.604;1.364;2023-03-14T11:37:29;11.50;99.90
26408;DHT22;14583;43.604;1.364;2023-03-14T11:40:10;11.20;99.90
26408;DHT22;14583;43.604;1.364;2023-03-14T11:42:40;11.20;99.90
26408;DHT22;14583;43.604;1.364;2023-03-14T11:45:18;11.50;99.90
26408;DHT22;14583;43.604;1.364;2023-03-14T11:47:52;11.50;99.90
26408;DHT22;14583;43.604;1.364;2023-03-14T11:50:24;11.60;99.90
26408;DHT22;14583;43.604;1.364;2023-03-14T11:53:04;11.70;99.90
26408;DHT22;14583;43.604;1.364;2023-03-14T11:55:36;11.70;99.90
26408;DHT22;14583;43.604;1.364;2023-03-14T12:00:49;12.20;99.90
26408;DHT22;14583;43.604;1.364;2023-03-14T12:03:33;12.00;99.90
26408;DHT22;14583;43.604;1.364;2023-03-14T12:13:41;12.00;99.90
26408;DHT22;14583;43.604;1.364;2023-03-14T12:18:48;12.00;99.90
26408;DHT22;14583;43.604;1.364;2023-03-14T12:21:14;12.00;99.90
26408;DHT22;14583;43.604;1.364;2023-03-14T12:23:54;11.90;99.90
26408;DHT22;14583;43.604;1.364;2023-03-14T12:26:26;11.90;99.90
26408;DHT22;14583;43.604;1.364;2023-03-14T12:31:48;11.70;99.90
26408;DHT22;14583;43.604;1.364;2023-03-14T12:40:28;12.10;99.90
26408;DHT22;14583;43.604;1.364;2023-03-14T12:43:00;12.40;99.90
26408;DHT22;14583;43.604;1.364;2023-03-14T12:45:35;12.90;99.90
26408;DHT22;14583;43.604;1.364;2023-03-14T12:48:21;13.20;99.90
26408;DHT22;14583;43.604;1.364;2023-03-14T12:51:04;13.10;99.90
26408;DHT22;14583;43.604;1.364;2023-03-14T12:53:59;13.00;99.90
26408;DHT22;14583;43.604;1.364;2023-03-14T12:56:55;12.70;99.90
26408;DHT22;14583;43.604;1.364;2023-03-14T12:59:29;12.50;99.90
26408;DHT22;14583;43.604;1.364;2023-03-14T13:02:10;12.20;99.90
26408;DHT22;14583;43.604;1.364;2023-03-14T13:04:46;12.40;99.90
26408;DHT22;14583;43.604;1.364;2023-03-14T13:07:28;12.80;99.90
26408;DHT22;14583;43.604;1.364;2023-03-14T13:10:01;12.80;99.90
26408;DHT22;14583;43.604;1.364;2023-03-14T13:12:29;12.90;99.90
26408;DHT22;14583;43.604;1.364;2023-03-14T13:14:59;13.00;99.90
26408;DHT22;14583;43.604;1.364;2023-03-14T13:17:30;13.10;99.90
26408;DHT22;14583;43.604;1.364;2023-03-14T13:19:57;13.30;99.90
26408;DHT22;14583;43.604;1.364;2023-03-14T13:22:28;13.50;99.90
26408;DHT22;14583;43.604;1.364;2023-03-14T13:25:00;13.40;99.90
26408;DHT22;14583;43.604;1.364;2023-03-14T13:27:30;13.30;99.90
26408;DHT22;14583;43.604;1.364;2023-03-14T13:29:57;13.20;99.90
26408;DHT22;14583;43.604;1.364;2023-03-14T13:32:27;13.30;99.90
26408;DHT22;14583;43.604;1.364;2023-03-14T13:34:57;13.10;99.90
26408;DHT22;14583;43.604;1.364;2023-03-14T13:37:25;13.10;99.90
26408;DHT22;14583;43.604;1.364;2023-03-14T13:39:56;13.30;99.90
26408;DHT22;14583;43.604;1.364;2023-03-14T13:42:26;13.20;99.90
26408;DHT22;14583;43.604;1.364;2023-03-14T13:44:53;13.10;99.90
26408;DHT22;14583;43.604;1.364;2023-03-14T13:47:21;12.60;99.90
26408;DHT22;14583;43.604;1.364;2023-03-14T13:49:49;11.70;99.90
26408;DHT22;14583;43.604;1.364;2023-03-14T13:52:23;11.40;99.90
26408;DHT22;14583;43.604;1.364;2023-03-14T13:54:53;11.30;99.90
26408;DHT22;14583;43.604;1.364;2023-03-14T13:57:19;11.40;99.90
26408;DHT22;14583;43.604;1.364;2023-03-14T14:00:02;11.40;99.90
26408;DHT22;14583;43.604;1.364;2023-03-14T14:02:33;11.50;99.90
26408;DHT22;14583;43.604;1.364;2023-03-14T14:05:00;11.60;99.90
26408;DHT22;14583;43.604;1.364;2023-03-14T14:07:26;12.00;99.90
26408;DHT22;14583;43.604;1.364;2023-03-14T14:09:52;12.20;99.90
26408;DHT22;14583;43.604;1.364;2023-03-14T14:12:27;12.30;99.90
26408;DHT22;14583;43.604;1.364;2023-03-14T14:17:32;12.60;99.90
26408;DHT22;14583;43.604;1.364;2023-03-14T14:20:05;12.70;99.90
26408;DHT22;14583;43.604;1.364;2023-03-14T14:22:32;12.90;99.90
26408;DHT22;14583;43.604;1.364;2023-03-14T14:24:59;13.40;99.90
26408;DHT22;14583;43.604;1.364;2023-03-14T14:27:42;13.30;99.90
26408;DHT22;14583;43.604;1.364;2023-03-14T14:30:26;12.90;99.90
26408;DHT22;14583;43.604;1.364;2023-03-14T14:32:52;12.30;99.90
26408;DHT22;14583;43.604;1.364;2023-03-14T14:35:30;12.00;99.90
26408;DHT22;14583;43.604;1.364;2023-03-14T14:37:56;12.30;99.90
26408;DHT22;14583;43.604;1.364;2023-03-14T14:40:24;12.70;99.90
26408;DHT22;14583;43.604;1.364;2023-03-14T14:42:50;13.30;99.90
26408;DHT22;14583;43.604;1.364;2023-03-14T14:45:21;13.80;99.90
26408;DHT22;14583;43.604;1.364;2023-03-14T14:47:57;14.00;99.90
26408;DHT22;14583;43.604;1.364;2023-03-14T14:52:57;12.90;99.90
26408;DHT22;14583;43.604;1.364;2023-03-14T14:55:32;12.50;99.90
26408;DHT22;14583;43.604;1.364;2023-03-14T14:58:18;12.00;99.90
26408;DHT22;14583;43.604;1.364;2023-03-14T15:00:59;11.60;99.90
26408;DHT22;14583;43.604;1.364;2023-03-14T15:03:32;11.30;99.90
26408;DHT22;14583;43.604;1.364;2023-03-14T15:05:58;11.50;99.90
26408;DHT22;14583;43.604;1.364;2023-03-14T15:08:26;11.60;99.90
26408;DHT22;14583;43.604;1.364;2023-03-14T15:10:52;11.90;99.90
26408;DHT22;14583;43.604;1.364;2023-03-14T15:13:17;12.30;99.90
26408;DHT22;14583;43.604;1.364;2023-03-14T15:15:44;13.30;99.90
26408;DHT22;14583;43.604;1.364;2023-03-14T15:18:15;14.30;99.90
26408;DHT22;14583;43.604;1.364;2023-03-14T15:20:42;14.90;99.90
26408;DHT22;14583;43.604;1.364;2023-03-14T15:23:13;15.00;99.90
26408;DHT22;14583;43.604;1.364;2023-03-14T15:25:39;15.00;99.90
26408;DHT22;14583;43.604;1.364;2023-03-14T15:28:18;15.80;99.90
26408;DHT22;14583;43.604;1.364;2023-03-14T15:30:49;15.70;99.90
26408;DHT22;14583;43.604;1.364;2023-03-14T15:33:16;15.50;99.90
26408;DHT22;14583;43.604;1.364;2023-03-14T15:35:42;15.20;99.90
26408;DHT22;14583;43.604;1.364;2023-03-14T15:38:15;15.00;99.90
26408;DHT22;14583;43.604;1.364;2023-03-14T15:40:41;14.80;99.90
26408;DHT22;14583;43.604;1.364;2023-03-14T15:43:10;20.20;99.90
26408;DHT22;14583;43.604;1.364;2023-03-14T15:45:36;23.70;99.90
26408;DHT22;14583;43.604;1.364;2023-03-14T15:48:03;25.30;99.90
26408;DHT22;14583;43.604;1.364;2023-03-14T15:50:29;26.90;95.90
26408;DHT22;14583;43.604;1.364;2023-03-14T15:52:55;28.80;92.20
26408;DHT22;14583;43.604;1.364;2023-03-14T15:55:22;29.20;89.10
26408;DHT22;14583;43.604;1.364;2023-03-14T15:57:48;28.80;87.80
26408;DHT22;14583;43.604;1.364;2023-03-14T16:00:17;29.50;84.60
26408;DHT22;14583;43.604;1.364;2023-03-14T16:02:44;30.00;83.90
26408;DHT22;14583;43.604;1.364;2023-03-14T16:05:11;30.00;81.90
26408;DHT22;14583;43.604;1.364;2023-03-14T16:07:37;30.30;79.50
26408;DHT22;14583;43.604;1.364;2023-03-14T16:10:04;29.50;80.10
26408;DHT22;14583;43.604;1.364;2023-03-14T16:12:31;25.60;81.10
26408;DHT22;14583;43.604;1.364;2023-03-14T16:14:57;20.50;91.40
26408;DHT22;14583;43.604;1.364;2023-03-14T16:17:23;17.90;95.70
26408;DHT22;14583;43.604;1.364;2023-03-14T16:19:49;16.60;99.60
26408;DHT22;14583;43.604;1.364;2023-03-14T16:22:15;15.50;99.90
26408;DHT22;14583;43.604;1.364;2023-03-14T16:24:41;15.00;99.90
26408;DHT22;14583;43.604;1.364;2023-03-14T16:27:07;14.80;99.90
26408;DHT22;14583;43.604;1.364;2023-03-14T16:29:32;14.80;99.90
26408;DHT22;14583;43.604;1.364;2023-03-14T16:31:58;15.20;99.90